Terminal Aerodrome Forecast
Issued by NWS

Home | Current Version | Previous Version | Text Only | Print | Product List | Glossary Off
Versions: 1 2 3 4 5 6 7 8 9 10 11 12 13 14

000
FTUS43 KMPX 021120
TAFRWF
TAF
KRWF 021120Z 0212/0312 18006KT P6SM SKC
     FM021700 20011G18KT P6SM SKC
     FM030100 18006KT P6SM SCT150=

USA.gov is the U.S. government's official web portal to all federal, state and local government web resources and services.